createdAt,value
2022-09-21T00:02:02.659Z,3.78
2022-09-21T00:04:46.929Z,4.03
2022-09-21T00:07:26.111Z,3.63
2022-09-21T00:10:05.621Z,4.20
2022-09-21T00:12:55.249Z,3.45
2022-09-21T00:15:28.824Z,4.20
2022-09-21T00:18:12.913Z,3.95
2022-09-21T00:20:50.533Z,3.58
2022-09-21T00:23:51.227Z,4.15
2022-09-21T00:26:54.819Z,3.90
2022-09-21T00:29:31.850Z,3.67
2022-09-21T00:32:18.606Z,3.70
2022-09-21T00:34:54.516Z,3.72
2022-09-21T00:37:46.524Z,4.22
2022-09-21T00:40:35.242Z,4.15
2022-09-21T00:43:37.974Z,4.10
2022-09-21T00:46:57.763Z,4.30
2022-09-21T00:49:33.644Z,4.10
2022-09-21T00:52:09.269Z,3.85
2022-09-21T00:55:08.628Z,4.15
2022-09-21T00:58:17.324Z,4.15
2022-09-21T01:01:03.048Z,3.67
2022-09-21T01:03:41.003Z,3.95
2022-09-21T01:06:40.741Z,3.92
2022-09-21T01:09:24.932Z,4.22
2022-09-21T01:12:51.178Z,4.18
2022-09-21T01:16:32.899Z,3.90
2022-09-21T01:19:59.052Z,4.15
2022-09-21T01:23:26.270Z,3.45
2022-09-21T01:26:18.767Z,3.97
2022-09-21T01:29:52.496Z,3.97
2022-09-21T01:32:45.258Z,3.60
2022-09-21T01:35:21.284Z,4.05
2022-09-21T01:37:59.615Z,4.15
2022-09-21T01:40:45.448Z,3.88
2022-09-21T01:43:30.472Z,4.20
2022-09-21T01:46:15.182Z,3.88
2022-09-21T01:49:04.648Z,3.88
2022-09-21T01:51:41.919Z,3.83
2022-09-21T01:54:21.704Z,4.13
2022-09-21T01:57:02.612Z,4.03
2022-09-21T01:59:51.259Z,3.95
2022-09-21T02:02:45.752Z,4.10
2022-09-21T02:05:19.450Z,3.88
2022-09-21T02:07:54.820Z,3.88
2022-09-21T02:10:46.930Z,3.72
2022-09-21T02:18:26.330Z,3.72
2022-09-21T02:22:15.045Z,3.65
2022-09-21T02:25:47.733Z,4.00
2022-09-21T02:29:17.287Z,3.67
2022-09-21T02:32:23.121Z,3.65
2022-09-21T02:39:09.815Z,3.58
2022-09-21T02:42:22.964Z,3.60
2022-09-21T02:48:55.220Z,3.83
2022-09-21T02:51:50.616Z,3.78
2022-09-21T02:54:46.343Z,3.92
2022-09-21T02:57:38.541Z,3.78
2022-09-21T03:01:34.125Z,3.90
2022-09-21T03:04:43.628Z,3.65
2022-09-21T03:08:08.826Z,3.63
2022-09-21T03:11:34.390Z,3.88
2022-09-21T03:14:29.977Z,3.78
2022-09-21T03:17:06.600Z,3.85
2022-09-21T03:19:55.745Z,4.03
2022-09-21T03:22:29.303Z,3.67
2022-09-21T03:25:02.776Z,3.72
2022-09-21T03:27:37.518Z,3.28
2022-09-21T03:30:19.585Z,3.80
2022-09-21T03:33:17.779Z,3.78
2022-09-21T03:36:03.559Z,3.75
2022-09-21T03:38:57.619Z,4.00
2022-09-21T03:41:47.043Z,3.70
2022-09-21T03:44:44.810Z,3.60
2022-09-21T03:47:30.808Z,3.92
2022-09-21T03:50:23.066Z,4.00
2022-09-21T03:53:20.403Z,3.80
2022-09-21T03:56:09.349Z,3.83
2022-09-21T03:58:58.371Z,3.63
2022-09-21T04:01:49.981Z,3.50
2022-09-21T04:04:30.500Z,3.78
2022-09-21T04:07:11.729Z,3.60
2022-09-21T04:10:03.340Z,3.97
2022-09-21T04:12:58.130Z,3.63
2022-09-21T04:15:41.700Z,3.75
2022-09-21T04:18:22.951Z,3.55
2022-09-21T04:24:52.675Z,3.42
2022-09-21T04:28:01.675Z,3.53
2022-09-21T04:33:34.874Z,3.42
2022-09-21T04:36:23.833Z,3.67
2022-09-21T04:39:42.079Z,4.20
2022-09-21T04:42:32.958Z,3.88
2022-09-21T04:45:09.761Z,3.75
2022-09-21T04:48:23.149Z,3.50
2022-09-21T04:51:18.862Z,3.42
2022-09-21T04:53:54.094Z,3.88
2022-09-21T04:56:47.020Z,3.72
2022-09-21T04:59:39.241Z,3.85
2022-09-21T05:02:35.885Z,3.75
2022-09-21T05:05:40.219Z,3.85
2022-09-21T05:08:54.804Z,3.65
2022-09-21T05:11:39.717Z,3.65
2022-09-21T05:14:23.502Z,3.85
2022-09-21T05:17:11.012Z,3.70
2022-09-21T05:20:05.351Z,3.90
2022-09-21T05:25:50.602Z,3.28
2022-09-21T05:28:28.973Z,3.75
2022-09-21T05:31:42.435Z,3.70
2022-09-21T05:34:57.677Z,3.60
2022-09-21T05:38:00.716Z,3.90
2022-09-21T05:41:02.241Z,3.63
2022-09-21T05:43:58.736Z,3.88
2022-09-21T05:46:56.520Z,3.72
2022-09-21T05:50:12.297Z,3.72
2022-09-21T05:53:21.948Z,3.45
2022-09-21T05:56:27.054Z,3.30
2022-09-21T06:00:03.385Z,3.50
2022-09-21T06:03:31.949Z,3.60
2022-09-21T06:06:17.660Z,3.88
2022-09-21T06:09:50.695Z,3.53
2022-09-21T06:12:33.254Z,3.58
2022-09-21T06:15:25.643Z,4.05
2022-09-21T06:18:14.245Z,3.60
2022-09-21T06:23:38.973Z,3.92
2022-09-21T06:26:32.969Z,3.92
2022-09-21T06:29:11.059Z,3.58
2022-09-21T06:35:09.260Z,3.63
2022-09-21T06:41:01.760Z,3.80
2022-09-21T06:44:04.389Z,3.65
2022-09-21T06:47:09.415Z,3.40
2022-09-21T06:49:53.369Z,3.20
2022-09-21T06:54:00.805Z,3.30
2022-09-21T07:22:12.597Z,3.42
2022-09-21T07:25:09.053Z,3.70
2022-09-21T07:31:30.816Z,3.67
2022-09-21T07:34:29.366Z,3.28
2022-09-21T07:37:44.588Z,3.50
2022-09-21T07:40:45.341Z,3.38
2022-09-21T07:43:33.653Z,3.72
2022-09-21T07:46:41.288Z,3.80
2022-09-21T07:49:27.223Z,3.63
2022-09-21T07:52:17.974Z,3.40
2022-09-21T07:55:19.609Z,3.28
2022-09-21T07:58:43.781Z,3.70
2022-09-21T08:01:40.872Z,3.63
2022-09-21T08:04:38.322Z,3.75
2022-09-21T08:07:39.245Z,3.47
2022-09-21T08:10:22.416Z,3.50
2022-09-21T08:13:20.408Z,3.60
2022-09-21T08:16:31.763Z,3.65
2022-09-21T08:19:27.001Z,3.00
2022-09-21T08:22:17.092Z,3.50
2022-09-21T08:25:11.142Z,3.78
2022-09-21T08:28:18.916Z,3.10
2022-09-21T08:31:27.414Z,3.75
2022-09-21T08:34:29.244Z,3.63
2022-09-21T08:37:30.653Z,3.65
2022-09-21T08:40:45.566Z,3.13
2022-09-21T08:44:07.510Z,3.30
2022-09-21T08:47:27.802Z,3.40
2022-09-21T08:50:25.891Z,3.38
2022-09-21T08:53:36.590Z,3.33
2022-09-21T08:57:00.687Z,3.13
2022-09-21T08:59:57.228Z,3.35
2022-09-21T09:03:00.334Z,3.35
2022-09-21T09:06:16.075Z,3.50
2022-09-21T09:09:18.004Z,3.35
2022-09-21T09:12:27.599Z,3.15
2022-09-21T09:16:02.291Z,3.20
2022-09-21T09:19:21.951Z,2.92
2022-09-21T09:22:19.237Z,3.15
2022-09-21T09:25:31.588Z,3.28
2022-09-21T09:28:59.455Z,3.58
2022-09-21T09:31:49.573Z,3.47
2022-09-21T09:35:01.335Z,3.72
2022-09-21T09:37:52.478Z,3.78
2022-09-21T09:41:16.474Z,3.42
2022-09-21T09:44:54.871Z,3.60
2022-09-21T09:48:31.742Z,3.10
2022-09-21T09:51:34.426Z,3.00
2022-09-21T09:54:29.860Z,3.42
2022-09-21T09:57:34.503Z,3.50
2022-09-21T10:00:32.611Z,3.25
2022-09-21T10:03:30.732Z,3.08
2022-09-21T10:06:59.823Z,3.20
2022-09-21T10:10:42.508Z,3.08
2022-09-21T10:14:11.810Z,3.20
2022-09-21T10:17:13.903Z,2.75
2022-09-21T10:26:47.235Z,3.22
2022-09-21T10:29:36.222Z,3.33
2022-09-21T10:32:36.182Z,3.67
2022-09-21T10:35:51.214Z,3.38
2022-09-21T10:45:55.478Z,2.97
2022-09-21T10:49:13.755Z,3.28
2022-09-21T10:52:18.940Z,3.00
2022-09-21T10:55:14.879Z,3.13
2022-09-21T10:58:09.359Z,3.42
2022-09-21T11:01:03.915Z,3.40
2022-09-21T11:04:13.104Z,3.53
2022-09-21T11:07:44.245Z,3.40
2022-09-21T11:11:13.593Z,3.35
2022-09-21T11:14:13.798Z,3.28
2022-09-21T11:17:20.971Z,3.60
2022-09-21T11:20:51.526Z,3.47
2022-09-21T11:27:59.356Z,3.50
2022-09-21T11:31:40.121Z,3.50
2022-09-21T11:34:50.243Z,3.13
2022-09-21T11:37:58.231Z,3.53
2022-09-21T11:41:10.809Z,3.47
2022-09-21T11:44:40.681Z,3.03
2022-09-21T11:47:42.416Z,3.40
2022-09-21T11:50:59.123Z,3.55
2022-09-21T11:54:35.787Z,3.33
2022-09-21T11:58:02.171Z,3.25
2022-09-21T12:01:34.602Z,3.47
2022-09-21T12:04:59.193Z,3.55
2022-09-21T12:08:37.073Z,3.63
2022-09-21T12:12:33.587Z,3.90
2022-09-21T12:17:21.948Z,3.58
2022-09-21T12:20:35.127Z,3.58
2022-09-21T12:23:35.065Z,3.85
2022-09-21T12:26:49.593Z,3.90
2022-09-21T12:29:58.818Z,4.03
2022-09-21T12:33:12.803Z,3.83
2022-09-21T12:36:37.073Z,4.07
2022-09-21T12:40:05.468Z,3.53
2022-09-21T12:48:55.981Z,3.33
2022-09-21T12:52:17.518Z,4.38
2022-09-21T12:55:45.409Z,4.50
2022-09-21T12:59:03.417Z,3.55
2022-09-21T13:01:57.866Z,4.07
2022-09-21T13:04:50.708Z,3.92
2022-09-21T13:08:08.748Z,4.20
2022-09-21T13:11:11.618Z,4.18
2022-09-21T13:14:04.917Z,4.28
2022-09-21T13:16:44.787Z,4.70
2022-09-21T13:19:30.690Z,4.95
2022-09-21T13:22:46.810Z,4.38
2022-09-21T13:25:49.912Z,4.57
2022-09-21T13:29:07.410Z,4.43
2022-09-21T13:32:08.440Z,4.53
2022-09-21T13:35:44.809Z,4.10
2022-09-21T13:38:53.200Z,4.22
2022-09-21T13:42:01.857Z,4.45
2022-09-21T13:48:40.863Z,4.72
2022-09-21T13:51:26.408Z,4.95
2022-09-21T13:54:25.633Z,5.20
2022-09-21T14:06:19.468Z,5.22
2022-09-21T14:09:43.741Z,4.75
2022-09-21T14:12:30.228Z,4.90
2022-09-21T14:15:28.181Z,5.53
2022-09-21T14:18:30.621Z,5.00
2022-09-21T14:21:26.898Z,4.88
2022-09-21T14:24:35.057Z,5.05
2022-09-21T14:27:59.491Z,4.97
2022-09-21T14:30:43.213Z,4.93
2022-09-21T14:33:31.564Z,5.32
2022-09-21T14:36:31.191Z,5.15
2022-09-21T14:39:23.143Z,5.38
2022-09-21T14:42:18.826Z,5.25
2022-09-21T14:45:19.386Z,5.22
2022-09-21T14:48:43.389Z,5.35
2022-09-21T14:51:47.204Z,5.30
2022-09-21T14:54:51.483Z,5.20
2022-09-21T14:58:05.379Z,4.95
2022-09-21T15:00:45.062Z,5.10
2022-09-21T15:03:58.247Z,4.95
2022-09-21T15:07:26.183Z,5.43
2022-09-21T15:10:20.524Z,5.20
2022-09-21T15:14:05.874Z,5.40
2022-09-21T15:16:55.212Z,5.50
2022-09-21T15:19:42.281Z,4.93
2022-09-21T15:22:30.633Z,5.18
2022-09-21T15:25:22.523Z,5.35
2022-09-21T15:27:55.629Z,5.63
2022-09-21T15:30:42.119Z,5.22
2022-09-21T15:33:38.032Z,5.32
2022-09-21T15:36:17.325Z,5.13
2022-09-21T15:39:16.800Z,5.75
2022-09-21T15:42:21.506Z,5.47
2022-09-21T15:45:16.044Z,5.47
2022-09-21T15:47:50.851Z,5.30
2022-09-21T15:50:34.998Z,4.85
2022-09-21T15:54:06.000Z,5.60
2022-09-21T15:56:50.808Z,5.57
2022-09-21T15:59:32.329Z,5.38
2022-09-21T16:02:31.016Z,5.22
2022-09-21T16:05:23.269Z,5.57
2022-09-21T16:08:21.297Z,5.30
2022-09-21T16:10:53.687Z,5.22
2022-09-21T16:13:53.479Z,5.88
2022-09-21T16:16:35.731Z,4.95
2022-09-21T16:19:20.972Z,5.55
2022-09-21T16:22:18.189Z,5.00
2022-09-21T16:25:06.514Z,5.00
2022-09-21T16:28:00.080Z,5.47
2022-09-21T16:30:57.450Z,5.65
2022-09-21T16:33:50.949Z,5.43
2022-09-21T16:36:42.107Z,5.55
2022-09-21T16:39:27.028Z,5.35
2022-09-21T16:42:17.736Z,5.35
2022-09-21T16:44:53.365Z,5.28
2022-09-21T16:47:54.073Z,5.78
2022-09-21T16:50:34.183Z,5.75
2022-09-21T16:53:17.363Z,5.47
2022-09-21T16:56:06.410Z,5.68
2022-09-21T16:58:54.707Z,5.55
2022-09-21T17:01:38.714Z,5.47
2022-09-21T17:04:19.020Z,5.47
2022-09-21T17:07:01.572Z,5.97
2022-09-21T17:09:49.863Z,5.18
2022-09-21T17:12:30.066Z,5.45
2022-09-21T17:15:11.216Z,5.05
2022-09-21T17:17:50.072Z,5.45
2022-09-21T17:20:34.047Z,5.68
2022-09-21T17:23:19.686Z,5.55
2022-09-21T17:28:40.483Z,5.00
2022-09-21T17:31:31.570Z,5.10
2022-09-21T17:34:16.150Z,5.20
2022-09-21T17:36:51.156Z,5.70
2022-09-21T17:39:35.985Z,5.40
2022-09-21T17:42:30.863Z,5.63
2022-09-21T17:45:24.028Z,5.15
2022-09-21T17:48:14.211Z,5.20
2022-09-21T17:51:01.541Z,5.50
2022-09-21T17:53:47.904Z,5.50
2022-09-21T17:56:30.028Z,5.00
2022-09-21T17:59:32.750Z,5.55
2022-09-21T18:02:30.874Z,4.90
2022-09-21T18:05:44.024Z,5.20
2022-09-21T18:09:02.711Z,4.90
2022-09-21T18:12:47.722Z,4.88
2022-09-21T18:15:45.149Z,5.03
2022-09-21T18:18:46.973Z,5.35
2022-09-21T18:21:33.021Z,5.15
2022-09-21T18:24:37.499Z,5.53
2022-09-21T18:27:23.682Z,5.38
2022-09-21T18:30:03.509Z,5.32
2022-09-21T18:33:22.203Z,5.40
2022-09-21T18:36:29.145Z,5.85
2022-09-21T18:39:23.079Z,5.47
2022-09-21T18:42:42.211Z,4.70
2022-09-21T18:45:26.219Z,4.95
2022-09-21T18:48:18.887Z,4.97
2022-09-21T18:51:18.425Z,5.60
2022-09-21T18:54:09.177Z,5.20
2022-09-21T18:56:42.380Z,5.10
2022-09-21T18:59:32.174Z,5.57
2022-09-21T19:02:15.829Z,5.13
2022-09-21T19:04:54.180Z,5.25
2022-09-21T19:07:53.005Z,5.43
2022-09-21T19:10:50.844Z,5.13
2022-09-21T19:13:46.245Z,5.25
2022-09-21T19:16:55.237Z,5.05
2022-09-21T19:20:03.040Z,4.63
2022-09-21T19:22:54.355Z,5.45
2022-09-21T19:26:02.240Z,5.20
2022-09-21T19:28:57.775Z,5.18
2022-09-21T19:31:29.269Z,5.57
2022-09-21T19:34:27.708Z,5.03
2022-09-21T19:37:09.233Z,5.28
2022-09-21T19:39:53.992Z,5.13
2022-09-21T19:42:47.592Z,5.13
2022-09-21T19:45:49.696Z,4.90
2022-09-21T19:48:36.292Z,4.68
2022-09-21T19:51:30.719Z,4.80
2022-09-21T19:54:43.913Z,5.13
2022-09-21T19:57:40.192Z,5.00
2022-09-21T20:00:24.340Z,5.00
2022-09-21T20:03:38.439Z,4.88
2022-09-21T20:06:21.558Z,4.40
2022-09-21T20:09:14.037Z,4.43
2022-09-21T20:12:17.581Z,4.97
2022-09-21T20:15:01.806Z,4.90
2022-09-21T20:18:15.761Z,4.80
2022-09-21T20:21:05.930Z,4.97
2022-09-21T20:27:44.513Z,4.93
2022-09-21T20:31:08.972Z,4.20
2022-09-21T20:37:17.996Z,4.30
2022-09-21T20:39:55.010Z,4.22
2022-09-21T20:42:33.371Z,4.38
2022-09-21T20:45:18.685Z,4.20
2022-09-21T20:48:19.282Z,4.18
2022-09-21T20:50:56.744Z,4.43
2022-09-21T20:53:39.931Z,4.40
2022-09-21T20:56:27.129Z,4.78
2022-09-21T20:59:16.765Z,4.45
2022-09-21T21:05:38.980Z,4.65
2022-09-21T21:08:26.184Z,4.28
2022-09-21T21:11:14.842Z,4.50
2022-09-21T21:14:00.237Z,4.30
2022-09-21T21:17:01.948Z,4.60
2022-09-21T21:19:50.041Z,4.53
2022-09-21T21:22:33.986Z,4.38
2022-09-21T21:25:18.535Z,4.60
2022-09-21T21:28:03.611Z,4.22
2022-09-21T21:30:45.784Z,4.82
2022-09-21T21:33:26.550Z,5.13
2022-09-21T21:36:23.645Z,4.88
2022-09-21T21:39:06.215Z,4.45
2022-09-21T21:41:46.726Z,4.80
2022-09-21T21:44:42.628Z,4.32
2022-09-21T21:47:38.645Z,5.03
2022-09-21T21:50:12.186Z,4.47
2022-09-21T21:52:49.459Z,4.72
2022-09-21T21:55:34.650Z,4.28
2022-09-21T21:58:15.939Z,4.63
2022-09-21T22:00:53.523Z,4.82
2022-09-21T22:04:22.463Z,4.47
2022-09-21T22:07:14.172Z,3.83
2022-09-21T22:09:53.374Z,4.30
2022-09-21T22:12:37.728Z,4.30
2022-09-21T22:15:21.696Z,4.17
2022-09-21T22:18:04.310Z,4.30
2022-09-21T22:20:51.924Z,4.18
2022-09-21T22:23:34.306Z,4.32
2022-09-21T22:26:23.971Z,4.63
2022-09-21T22:29:38.834Z,4.03
2022-09-21T22:32:21.620Z,4.55
2022-09-21T22:34:58.652Z,3.90
2022-09-21T22:38:01.594Z,4.53
2022-09-21T22:41:08.749Z,4.05
2022-09-21T22:43:58.196Z,3.97
2022-09-21T22:47:01.569Z,4.00
2022-09-21T22:49:42.376Z,4.07
2022-09-21T22:52:26.906Z,4.45
2022-09-21T22:55:16.286Z,4.00
2022-09-21T22:57:58.475Z,4.53
2022-09-21T23:00:33.766Z,4.03
2022-09-21T23:03:27.888Z,4.32
2022-09-21T23:06:17.029Z,4.53
2022-09-21T23:08:58.365Z,4.05
2022-09-21T23:11:50.474Z,4.68
2022-09-21T23:14:40.334Z,4.00
2022-09-21T23:17:27.813Z,4.05
2022-09-21T23:20:16.923Z,4.22
2022-09-21T23:23:02.972Z,4.00
2022-09-21T23:25:46.861Z,4.40
2022-09-21T23:28:22.948Z,4.53
2022-09-21T23:31:09.476Z,4.13
2022-09-21T23:33:51.288Z,4.30
2022-09-21T23:36:46.548Z,4.40
2022-09-21T23:39:27.200Z,4.07
2022-09-21T23:42:13.375Z,4.70
2022-09-21T23:44:50.303Z,4.15
2022-09-21T23:47:34.550Z,4.40
2022-09-21T23:50:20.851Z,4.10
2022-09-21T23:53:09.948Z,4.28
2022-09-21T23:56:06.861Z,4.10
2022-09-21T23:59:20.895Z,4.50
